Pagrindinis puslapis
METAR-TAF:

METAR-TAF

Oro uostai :

Vlieland, Nyderlandai

platuma: 53-15N, ilguma: 004-55E, Aukštis: 11 m

Dabartinis oras

Ataskaita buvo paskelbta 23 minutes, ne 06:59 UTC
Vėjas 17 kt iš Vakarų
Temperatūra 5°C
Drėgmė 75%
Slėgis 1012 hPa
Matomumas 10 km arba daugiau
Mažai debesys ne aukštis 2200 ft
Apsiniaukę ne aukštis 13000 ft

METAR: EHVL 280659Z AUTO 27017KT 9999 FEW022 OVC130 05/01 Q1012 BLU

Laikas: 08:22 (07:22 UTC)


TAF: trūkstamas

Orai ataskaitas ir orų prognozės (METAR, TAF).

turimą stotys yra geltonos ir raudonos taškus žemėlapyje.

Perkelti pele per norėdami pamatyti stoties vardą.

Tada spustelėkite, norėdami matyti oro stebėjimo ir prognozės.

Norėdami pakeisti žemėlapį: spustelėkite ant žalios mygtukų su juodo kryžiaus žemyn,; žalią mygtuką su brūkšneliu, jei norite nutolinti; arba žalių rodyklių gretimoms žemėlapius.


METAR-TAF: